createdAt,value
2019-05-19T00:06:29.549Z,3.10
2019-05-19T00:19:56.390Z,2.53
2019-05-19T00:23:06.212Z,2.50
2019-05-19T00:26:28.609Z,2.50
2019-05-19T00:29:23.682Z,5.43
2019-05-19T00:36:46.215Z,3.07
2019-05-19T00:42:24.734Z,2.40
2019-05-19T00:52:07.311Z,2.70
2019-05-19T00:55:04.561Z,2.30
2019-05-19T00:57:59.041Z,3.00
2019-05-19T01:18:23.970Z,3.00
2019-05-19T01:21:18.961Z,2.37
2019-05-19T01:24:11.498Z,4.90
2019-05-19T01:37:49.037Z,2.37
2019-05-19T01:40:41.202Z,3.77
2019-05-19T01:43:55.185Z,4.40
2019-05-19T01:56:18.483Z,2.80
2019-05-19T01:59:07.427Z,2.30
2019-05-19T02:05:39.736Z,3.43
2019-05-19T02:08:34.796Z,2.97
2019-05-19T02:11:32.477Z,4.63
2019-05-19T02:14:27.260Z,2.10
2019-05-19T02:17:34.089Z,2.70
2019-05-19T02:31:11.562Z,2.40
2019-05-19T02:34:14.337Z,2.33
2019-05-19T02:40:49.850Z,2.87
2019-05-19T02:43:48.903Z,3.00
2019-05-19T02:46:38.395Z,4.77
2019-05-19T02:50:02.113Z,2.00
2019-05-19T02:55:58.357Z,3.50
2019-05-19T03:02:04.962Z,3.47
2019-05-19T03:08:10.745Z,3.27
2019-05-19T03:11:19.544Z,4.03
2019-05-19T03:14:43.626Z,2.90
2019-05-19T03:18:05.020Z,3.07
2019-05-19T03:21:26.713Z,3.33
2019-05-19T03:24:16.409Z,3.13
2019-05-19T03:27:28.669Z,2.47
2019-05-19T03:33:37.510Z,3.57
2019-05-19T03:36:32.465Z,5.20
2019-05-19T03:39:25.200Z,2.87
2019-05-19T03:45:21.365Z,2.80
2019-05-19T03:48:09.628Z,4.97
2019-05-19T04:00:59.533Z,2.43
2019-05-19T04:10:19.672Z,5.03
2019-05-19T04:13:22.627Z,7.50
2019-05-19T04:16:17.241Z,3.80
2019-05-19T04:19:21.547Z,3.83
2019-05-19T04:22:28.842Z,2.43
2019-05-19T04:28:52.571Z,3.10
2019-05-19T04:39:25.388Z,3.63
2019-05-19T04:42:51.480Z,5.10
2019-05-19T04:45:45.379Z,4.80
2019-05-19T04:48:56.326Z,5.43
2019-05-19T04:51:44.948Z,3.53
2019-05-19T04:54:59.107Z,4.63
2019-05-19T04:57:29.916Z,4.73
2019-05-19T05:00:20.828Z,4.73
2019-05-19T05:04:20.899Z,3.67
2019-05-19T05:06:53.647Z,4.63
2019-05-19T05:12:37.213Z,3.17
2019-05-19T05:15:29.830Z,4.17
2019-05-19T05:18:53.496Z,3.13
2019-05-19T05:21:41.832Z,3.77
2019-05-19T05:24:58.213Z,4.60
2019-05-19T05:49:00.966Z,3.67
2019-05-19T05:51:49.854Z,3.37
2019-05-19T05:54:43.005Z,4.30
2019-05-19T05:57:42.601Z,4.80
2019-05-19T06:00:35.924Z,3.57
2019-05-19T06:10:54.027Z,6.57
2019-05-19T06:13:44.242Z,3.43
2019-05-19T06:20:52.658Z,3.77
2019-05-19T06:23:42.649Z,3.33
2019-05-19T06:26:39.793Z,6.10
2019-05-19T06:29:27.858Z,5.37
2019-05-19T06:32:26.142Z,3.97
2019-05-19T06:35:20.698Z,5.70
2019-05-19T06:41:39.999Z,7.50
2019-05-19T06:47:54.385Z,4.30
2019-05-19T06:50:41.174Z,4.80
2019-05-19T06:57:32.148Z,4.27
2019-05-19T07:00:28.145Z,5.43
2019-05-19T07:03:22.509Z,3.23
2019-05-19T07:06:10.740Z,3.83
2019-05-19T07:08:59.312Z,3.43
2019-05-19T07:12:24.917Z,3.97
2019-05-19T07:18:53.472Z,4.73
2019-05-19T07:22:01.544Z,5.57
2019-05-19T07:24:53.687Z,4.53
2019-05-19T07:27:51.536Z,4.77
2019-05-19T07:31:18.467Z,4.87
2019-05-19T07:37:38.729Z,3.70
2019-05-19T07:40:38.050Z,4.80
2019-05-19T07:43:38.321Z,3.63
2019-05-19T07:47:07.800Z,5.87
2019-05-19T07:57:03.565Z,4.10
2019-05-19T08:06:19.846Z,3.93
2019-05-19T08:12:49.457Z,4.17
2019-05-19T08:23:10.926Z,4.63
2019-05-19T08:26:10.423Z,6.07
2019-05-19T08:29:04.182Z,3.33
2019-05-19T08:32:01.686Z,3.67
2019-05-19T08:35:09.672Z,4.03
2019-05-19T08:38:18.727Z,4.57
2019-05-19T08:48:38.129Z,5.13
2019-05-19T08:55:11.523Z,6.23
2019-05-19T09:07:43.981Z,6.20
2019-05-19T09:10:13.384Z,4.40
2019-05-19T09:11:19.187Z,4.30
2019-05-19T09:18:32.992Z,4.33
2019-05-19T09:28:17.250Z,7.23
2019-05-19T09:31:08.600Z,6.17
2019-05-19T09:44:23.919Z,4.53
2019-05-19T09:54:12.819Z,7.97
2019-05-19T09:57:22.891Z,7.60
2019-05-19T10:00:11.046Z,8.37
2019-05-19T10:03:26.084Z,6.43
2019-05-19T10:06:37.075Z,6.20
2019-05-19T10:09:58.715Z,9.20
2019-05-19T10:12:49.522Z,10.13
2019-05-19T10:15:47.496Z,6.53
2019-05-19T10:21:50.775Z,5.40
2019-05-19T10:28:27.207Z,5.43
2019-05-19T10:31:23.227Z,6.33
2019-05-19T10:38:03.096Z,10.90
2019-05-19T10:40:48.209Z,8.90
2019-05-19T10:43:40.816Z,11.10
2019-05-19T10:46:52.826Z,6.20
2019-05-19T10:49:42.994Z,8.20
2019-05-19T10:52:45.467Z,12.03
2019-05-19T10:55:36.878Z,29.13
2019-05-19T10:58:24.085Z,19.63
2019-05-19T11:01:15.480Z,9.23
2019-05-19T11:04:03.804Z,13.43
2019-05-19T11:06:52.374Z,10.30
2019-05-19T11:09:40.934Z,11.90
2019-05-19T11:12:34.523Z,9.43
2019-05-19T11:15:22.722Z,6.47
2019-05-19T11:18:30.964Z,10.77
2019-05-19T11:21:22.204Z,6.63
2019-05-19T11:24:12.053Z,9.23
2019-05-19T11:27:15.365Z,7.03
2019-05-19T11:30:12.377Z,6.10
2019-05-19T11:33:00.402Z,8.20
2019-05-19T11:35:51.634Z,5.77
2019-05-19T11:38:43.149Z,8.00
2019-05-19T11:44:49.671Z,6.37
2019-05-19T11:47:44.259Z,5.90
2019-05-19T11:50:32.466Z,7.97
2019-05-19T11:53:26.379Z,7.17
2019-05-19T11:56:15.011Z,6.97
2019-05-19T11:59:03.630Z,12.83
2019-05-19T12:01:52.014Z,11.40
2019-05-19T12:04:47.526Z,10.20
2019-05-19T12:10:29.354Z,7.53
2019-05-19T12:13:16.800Z,8.13
2019-05-19T12:16:04.482Z,8.73
2019-05-19T12:18:52.095Z,6.93
2019-05-19T12:21:39.773Z,8.70
2019-05-19T12:24:27.889Z,7.77
2019-05-19T12:27:15.552Z,6.10
2019-05-19T12:30:03.688Z,8.57
2019-05-19T12:32:51.428Z,6.07
2019-05-19T12:35:39.397Z,8.07
2019-05-19T12:38:27.151Z,7.33
2019-05-19T12:41:15.154Z,7.20
2019-05-19T12:44:03.625Z,7.73
2019-05-19T12:46:59.854Z,6.87
2019-05-19T12:49:57.922Z,9.03
2019-05-19T12:52:54.948Z,7.10
2019-05-19T12:59:04.379Z,6.80
2019-05-19T13:02:02.410Z,5.77
2019-05-19T13:05:04.164Z,6.27
2019-05-19T13:07:46.076Z,6.10
2019-05-19T13:10:58.765Z,7.20
2019-05-19T13:14:31.620Z,6.17
2019-05-19T13:20:36.035Z,7.97
2019-05-19T13:23:26.735Z,5.93
2019-05-19T13:33:03.778Z,7.73
2019-05-19T13:39:31.218Z,7.37
2019-05-19T13:45:35.588Z,7.60
2019-05-19T13:48:22.941Z,7.33
2019-05-19T13:51:10.568Z,6.87
2019-05-19T13:53:58.347Z,7.27
2019-05-19T13:56:46.170Z,8.80
2019-05-19T13:59:34.295Z,9.80
2019-05-19T14:02:22.053Z,6.80
2019-05-19T14:05:10.022Z,5.47
2019-05-19T14:07:57.301Z,7.07
2019-05-19T14:10:45.432Z,5.90
2019-05-19T14:13:33.110Z,8.60
2019-05-19T14:16:20.894Z,7.63
2019-05-19T14:19:08.756Z,7.07
2019-05-19T14:21:58.003Z,7.00
2019-05-19T14:24:46.070Z,5.70
2019-05-19T14:27:34.134Z,6.60
2019-05-19T14:30:21.528Z,9.60
2019-05-19T14:33:09.363Z,7.87
2019-05-19T14:35:57.214Z,5.73
2019-05-19T14:39:05.731Z,7.17
2019-05-19T14:42:16.989Z,6.83
2019-05-19T14:55:13.672Z,8.17
2019-05-19T15:02:11.523Z,6.27
2019-05-19T15:12:10.844Z,7.60
2019-05-19T15:15:36.784Z,10.43
2019-05-19T15:18:43.832Z,10.23
2019-05-19T15:21:47.795Z,10.13
2019-05-19T15:28:36.769Z,11.23
2019-05-19T15:34:35.243Z,10.93
2019-05-19T15:44:18.543Z,10.27
2019-05-19T15:57:38.909Z,8.27
2019-05-19T16:00:27.236Z,7.70
2019-05-19T16:03:19.869Z,8.43
2019-05-19T16:06:23.461Z,8.23
2019-05-19T16:09:34.204Z,10.93
2019-05-19T16:16:22.628Z,10.57
2019-05-19T16:19:22.417Z,8.70
2019-05-19T16:29:00.769Z,8.60
2019-05-19T16:35:51.346Z,8.17
2019-05-19T16:38:42.264Z,10.67
2019-05-19T16:41:55.368Z,8.07
2019-05-19T16:45:00.030Z,9.20
2019-05-19T16:54:45.281Z,7.87
2019-05-19T17:21:56.725Z,9.33
2019-05-19T17:24:23.167Z,10.13
2019-05-19T17:27:10.485Z,8.23
2019-05-19T17:29:57.807Z,6.73
2019-05-19T17:34:07.384Z,8.73
2019-05-19T17:46:33.600Z,9.83
2019-05-19T17:56:30.095Z,10.27
2019-05-19T17:59:56.066Z,10.33
2019-05-19T18:03:26.880Z,12.37
2019-05-19T18:06:16.675Z,11.20
2019-05-19T18:09:16.956Z,10.63
2019-05-19T18:12:09.318Z,11.43
2019-05-19T18:19:23.314Z,12.53
2019-05-19T18:28:37.628Z,13.43
2019-05-19T18:38:12.581Z,13.83
2019-05-19T18:41:06.631Z,12.60
2019-05-19T18:47:27.724Z,13.17
2019-05-19T18:53:55.656Z,12.67
2019-05-19T19:11:40.038Z,9.87
2019-05-19T19:14:30.112Z,10.60
2019-05-19T19:31:49.722Z,11.53
2019-05-19T19:38:05.263Z,10.20
2019-05-19T19:41:09.182Z,10.40
2019-05-19T19:50:54.570Z,10.23
2019-05-19T19:53:51.864Z,10.93
2019-05-19T20:04:18.365Z,11.90
2019-05-19T20:07:15.890Z,12.20
2019-05-19T20:10:37.812Z,11.33
2019-05-19T20:13:34.183Z,11.00
2019-05-19T20:16:40.577Z,11.73
2019-05-19T20:26:40.053Z,9.53
2019-05-19T20:33:28.151Z,13.53
2019-05-19T20:36:17.215Z,9.90
2019-05-19T20:39:40.749Z,11.10
2019-05-19T20:42:37.682Z,16.43
2019-05-19T20:45:35.127Z,13.43
2019-05-19T20:51:58.674Z,10.37
2019-05-19T21:02:42.354Z,12.37
2019-05-19T21:05:57.808Z,13.50
2019-05-19T21:11:50.460Z,13.67
2019-05-19T21:14:40.919Z,12.97
2019-05-19T21:17:41.043Z,14.83
2019-05-19T21:20:41.156Z,15.70
2019-05-19T21:23:33.683Z,15.50
2019-05-19T21:26:24.683Z,17.73
2019-05-19T21:29:46.996Z,17.87
2019-05-19T21:39:45.315Z,19.30
2019-05-19T21:42:37.976Z,19.90
2019-05-19T21:45:46.373Z,18.93
2019-05-19T21:48:43.359Z,19.33
2019-05-19T21:51:36.662Z,21.13
2019-05-19T21:54:33.768Z,18.73
2019-05-19T21:57:39.023Z,18.47
2019-05-19T22:00:34.525Z,18.87
2019-05-19T22:03:31.464Z,20.53
2019-05-19T22:06:37.345Z,22.67
2019-05-19T22:09:50.247Z,33.53
2019-05-19T22:12:44.160Z,27.73
2019-05-19T22:15:38.742Z,36.53
2019-05-19T22:18:47.476Z,24.17
2019-05-19T22:28:26.203Z,23.40
2019-05-19T22:31:36.005Z,27.03
2019-05-19T22:41:19.661Z,19.37
2019-05-19T22:58:06.130Z,16.17
2019-05-19T23:01:05.007Z,16.10
2019-05-19T23:07:30.087Z,15.90
2019-05-19T23:10:21.578Z,15.27
2019-05-19T23:13:33.045Z,14.67
2019-05-19T23:16:25.770Z,13.73
2019-05-19T23:20:04.180Z,14.27
2019-05-19T23:23:14.626Z,13.87
2019-05-19T23:37:23.482Z,12.63
2019-05-19T23:40:32.796Z,11.57
2019-05-19T23:46:55.625Z,11.33
2019-05-19T23:49:43.540Z,11.93
2019-05-19T23:55:44.783Z,10.80
2019-05-19T23:58:47.764Z,11.07
